Time;durP1;ratioP1;P1;durP2;ratioP2;P2;SDS_P1;SDS_P2;PMS_P1;PMS_P2;Temp;Humidity;BMP_temperature;BMP_pressure;BME280_temperature;BME280_humidity;BME280_pressure;Samples;Min_cycle;Max_cycle;Signal;HPM_P1;HPM_P2
2021/06/08 05:32:46;;;;;;;12.03;8.05;;;;;;;17.91;62.75;100520.60;1536149;90;25707;-59
2021/06/08 05:35:13;;;;;;;12.80;8.00;;;;;;;18.14;62.50;100513.16;1540083;91;27369;-59
2021/06/08 05:37:45;;;;;;;17.60;8.65;;;;;;;18.33;62.21;100515.16;1555275;91;25886;-59
2021/06/08 05:40:11;;;;;;;16.42;8.65;;;;;;;18.54;62.07;100507.98;1539931;91;25794;-59
2021/06/08 05:42:39;;;;;;;20.90;9.40;;;;;;;18.79;62.04;100507.94;1539012;91;25853;-59
2021/06/08 05:45:08;;;;;;;19.80;8.43;;;;;;;19.04;61.81;100514.56;1519360;92;25896;-60
2021/06/08 05:47:38;;;;;;;16.27;8.10;;;;;;;19.26;61.26;100509.47;1535154;92;27428;-58
2021/06/08 05:50:06;;;;;;;18.52;8.35;;;;;;;19.51;61.15;100514.87;1535459;92;25901;-58
2021/06/08 05:52:36;;;;;;;13.93;7.62;;;;;;;19.75;60.67;100514.31;1533070;92;25758;-57
2021/06/08 05:55:06;;;;;;;10.25;8.33;;;;;;;20.02;60.23;100515.15;1520469;92;27007;-60
2021/06/08 05:57:33;;;;;;;21.17;8.20;;;;;;;20.25;59.94;100520.62;1531882;92;25911;-60
2021/06/08 06:00:04;;;;;;;19.85;7.78;;;;;;;20.49;59.40;100523.52;1525958;92;27337;-59
2021/06/08 06:02:35;;;;;;;20.68;8.60;;;;;;;20.73;59.16;100522.89;1531238;92;33290;-60
2021/06/08 06:05:05;;;;;;;16.87;8.58;;;;;;;20.98;58.65;100523.80;1535685;92;25932;-59
2021/06/08 06:07:32;;;;;;;13.10;7.15;;;;;;;21.21;58.38;100525.83;1527818;92;25920;-60
2021/06/08 06:10:00;;;;;;;13.88;8.30;;;;;;;21.45;57.56;100516.84;1496647;93;25915;-57
2021/06/08 06:12:29;;;;;;;15.83;7.67;;;;;;;21.70;57.26;100524.00;1523474;92;27341;-57
2021/06/08 06:15:03;;;;;;;16.30;7.47;;;;;;;21.92;56.83;100519.47;1515252;93;26054;-57
2021/06/08 06:17:26;;;;;;;20.52;9.08;;;;;;;22.17;56.35;100521.64;1535462;91;25914;-60
2021/06/08 06:19:53;;;;;;;15.55;7.95;;;;;;;22.44;55.79;100520.06;1519928;91;25834;-60
2021/06/08 06:22:19;;;;;;;13.62;7.37;;;;;;;22.70;55.21;100517.66;1553535;90;25755;-59
2021/06/08 06:24:46;;;;;;;17.02;7.65;;;;;;;22.88;54.63;100510.27;1530837;91;27353;-59
2021/06/08 06:27:12;;;;;;;13.03;7.30;;;;;;;23.06;53.76;100512.33;1497867;94;26529;-59
2021/06/08 06:29:40;;;;;;;11.45;7.03;;;;;;;23.19;53.64;100512.17;1493372;94;25878;-59
2021/06/08 06:32:08;;;;;;;17.35;7.40;;;;;;;23.36;53.44;100507.06;1490154;94;25892;-59
2021/06/08 06:34:37;;;;;;;12.95;7.28;;;;;;;23.55;53.36;100505.34;1496266;94;25951;-60
2021/06/08 06:37:07;;;;;;;19.07;8.00;;;;;;;23.75;53.26;100500.23;1492722;94;27944;-60
2021/06/08 06:39:36;;;;;;;14.38;8.10;;;;;;;23.98;52.78;100501.83;1494455;94;27298;-59
2021/06/08 06:42:07;;;;;;;10.70;7.50;;;;;;;24.15;51.91;100501.02;1540418;92;25840;-59
2021/06/08 06:44:34;;;;;;;9.00;6.90;;;;;;;24.28;51.60;100501.41;1523254;92;25784;-59
2021/06/08 06:47:02;;;;;;;9.73;7.08;;;;;;;24.39;51.04;100500.77;1561349;90;25855;-60
2021/06/08 06:49:29;;;;;;;11.75;6.85;;;;;;;24.50;50.97;100495.23;1535768;91;27897;-59
2021/06/08 06:51:56;;;;;;;13.83;6.87;;;;;;;24.69;50.79;100498.16;1556999;90;26395;-60
2021/06/08 06:54:24;;;;;;;8.55;6.00;;;;;;;24.87;50.02;100500.05;1572116;89;25901;-60
2021/06/08 06:56:52;;;;;;;8.30;5.87;;;;;;;24.98;49.62;100498.03;1532043;92;25946;-60
2021/06/08 06:59:19;;;;;;;10.35;6.00;;;;;;;25.17;49.87;100507.81;1534729;92;25788;-60
2021/06/08 07:01:47;;;;;;;10.68;6.03;;;;;;;25.43;49.67;100502.94;1530752;92;27417;-59
2021/06/08 07:04:16;;;;;;;12.03;6.50;;;;;;;25.72;49.52;100502.91;1509893;92;25952;-55
2021/06/08 07:06:45;;;;;;;8.95;6.58;;;;;;;25.99;48.98;100502.33;1486503;94;25847;-55
2021/06/08 07:09:11;;;;;;;10.35;6.05;;;;;;;26.25;48.69;100505.64;1472665;96;26605;-55
2021/06/08 07:11:38;;;;;;;10.58;5.42;;;;;;;26.46;47.77;100501.27;1534872;91;25930;-55
2021/06/08 07:14:06;;;;;;;9.25;5.60;;;;;;;26.65;47.13;100502.66;1550300;91;27358;-54
2021/06/08 07:16:33;;;;;;;11.57;5.60;;;;;;;26.84;46.95;100502.63;1511633;93;25995;-55
2021/06/08 07:19:00;;;;;;;8.70;6.53;;;;;;;27.06;46.57;100498.80;1539807;91;25939;-55
2021/06/08 07:21:27;;;;;;;11.30;5.45;;;;;;;27.31;46.31;100503.42;1537295;91;25922;-55
2021/06/08 07:23:55;;;;;;;7.78;5.30;;;;;;;27.54;45.66;100505.44;1532622;92;25783;-55
2021/06/08 07:26:27;;;;;;;8.40;6.67;;;;;;;27.78;45.23;100504.08;1527095;92;27332;-55
2021/06/08 07:28:55;;;;;;;9.70;5.47;;;;;;;28.08;44.90;100503.81;1529206;92;25871;-55
2021/06/08 07:31:59;;;;;;;8.13;5.60;;;;;;;28.34;44.21;100504.91;1540501;91;25697;-55
2021/06/08 07:34:30;;;;;;;9.30;5.58;;;;;;;28.58;43.77;100503.50;1551520;90;25834;-55
2021/06/08 07:36:59;;;;;;;11.43;5.60;;;;;;;28.87;43.29;100505.08;1562733;89;25952;-55
2021/06/08 07:39:55;;;;;;;9.93;5.90;;;;;;;29.08;42.75;100498.87;1537223;90;27948;-55
2021/06/08 07:42:41;;;;;;;13.93;5.42;;;;;;;29.34;42.66;100502.70;1484095;94;26095;-56
2021/06/08 07:45:16;;;;;;;10.63;5.92;;;;;;;29.60;41.53;100500.88;1472679;96;26144;-56
2021/06/08 07:47:49;;;;;;;10.55;5.05;;;;;;;29.76;41.15;100500.08;1479386;96;26686;-56
2021/06/08 07:50:16;;;;;;;7.15;4.33;;;;;;;29.98;41.02;100496.97;1472721;96;26016;-56
2021/06/08 07:52:43;;;;;;;5.25;4.30;;;;;;;30.26;40.17;100503.62;1472608;95;28137;-55
2021/06/08 07:55:12;;;;;;;9.45;4.78;;;;;;;30.43;39.52;100505.16;1485427;94;26658;-56
2021/06/08 07:57:39;;;;;;;5.20;4.33;;;;;;;30.70;39.31;100510.38;1483001;94;25974;-55
2021/06/08 08:00:11;;;;;;;8.18;4.67;;;;;;;30.94;38.67;100510.11;1483672;94;25851;-56
2021/06/08 08:02:39;;;;;;;5.28;3.83;;;;;;;31.10;38.05;100512.02;1462956;94;26021;-55
2021/06/08 08:05:11;;;;;;;6.28;4.15;;;;;;;31.26;37.46;100510.53;1469683;94;27537;-55
2021/06/08 08:07:39;;;;;;;5.35;3.85;;;;;;;31.50;37.07;100511.61;1467712;94;25842;-56
2021/06/08 08:10:07;;;;;;;9.28;4.45;;;;;;;31.64;36.37;100501.34;1475138;94;25916;-56
2021/06/08 08:12:41;;;;;;;7.58;4.87;;;;;;;31.89;36.36;100500.34;1462247;95;25977;-56
2021/06/08 08:15:10;;;;;;;7.28;4.85;;;;;;;32.12;35.86;100507.58;1467982;94;26019;-55
2021/06/08 08:17:38;;;;;;;17.32;5.08;;;;;;;32.21;35.28;100506.25;1472741;94;27393;-55
2021/06/08 08:20:09;;;;;;;9.53;4.12;;;;;;;32.32;34.97;100498.89;1527438;91;25886;-55
2021/06/08 08:22:36;;;;;;;7.60;4.28;;;;;;;32.48;34.75;100500.70;1552231;91;26567;-55
2021/06/08 08:25:06;;;;;;;7.83;5.75;;;;;;;32.63;34.53;100499.59;1505631;93;25984;-55
2021/06/08 08:27:32;;;;;;;6.72;4.60;;;;;;;32.82;34.10;100502.64;1511627;93;25770;-56
2021/06/08 08:29:58;;;;;;;6.87;4.42;;;;;;;33.04;34.23;100496.23;1538824;91;27431;-56
2021/06/08 08:32:25;;;;;;;12.50;5.00;;;;;;;33.39;33.64;100501.66;1521985;92;25901;-55
2021/06/08 08:34:51;;;;;;;11.78;5.12;;;;;;;33.58;33.31;100495.48;1530894;92;25761;-55
2021/06/08 08:37:18;;;;;;;7.80;4.67;;;;;;;33.77;32.64;100496.34;1537594;92;26092;-55
2021/06/08 08:39:46;;;;;;;5.25;4.20;;;;;;;33.97;32.58;100495.88;1517407;92;26003;-57
2021/06/08 08:42:13;;;;;;;9.05;4.22;;;;;;;34.06;32.03;100494.49;1537512;92;27346;-55
2021/06/08 08:44:42;;;;;;;7.28;4.10;;;;;;;33.76;31.67;100499.75;1529965;91;25736;-55
2021/06/08 08:47:09;;;;;;;7.47;4.30;;;;;;;33.40;31.37;100496.23;1540449;89;25983;-55
2021/06/08 08:49:35;;;;;;;12.05;3.98;;;;;;;32.99;31.50;100494.80;1532295;91;26350;-56
2021/06/08 08:52:03;;;;;;;6.50;3.60;;;;;;;32.98;32.13;100494.63;1533916;92;25873;-55
2021/06/08 08:54:30;;;;;;;5.05;3.75;;;;;;;33.22;31.90;100497.73;1530876;91;27364;-56
2021/06/08 08:56:57;;;;;;;8.95;4.45;;;;;;;33.31;31.22;100496.36;1515187;90;25990;-56
2021/06/08 08:59:24;;;;;;;8.73;4.25;;;;;;;33.02;31.15;100501.52;1553213;89;25883;-55
2021/06/08 09:01:51;;;;;;;7.45;5.22;;;;;;;33.02;31.15;100501.52;1549532;91;25866;-55
2021/06/08 09:04:19;;;;;;;7.47;4.37;;;;;;;32.39;30.89;100505.62;1541320;91;25929;-55
2021/06/08 09:06:46;;;;;;;4.72;3.60;;;;;;;32.39;30.89;100505.62;1540746;91;27334;-56
2021/06/08 09:09:15;;;;;;;9.48;4.85;;;;;;;31.96;30.91;100490.30;1552456;91;26492;-57
2021/06/08 09:11:43;;;;;;;6.87;4.33;;;;;;;31.97;31.25;100480.06;1517435;91;26282;-58
2021/06/08 09:14:12;;;;;;;;;;;;;;;31.90;31.52;100485.13;1532400;92;26071;-58
2021/06/08 09:16:39;;;;;;;;;;;;;;;31.99;31.19;100486.01;1541131;91;25761;-58
2021/06/08 09:19:10;;;;;;;13.00;4.47;;;;;;;31.82;31.20;100495.17;1554022;91;27353;-57
2021/06/08 09:21:43;;;;;;;9.00;4.50;;;;;;;31.56;31.59;100481.84;1542768;91;25896;-57
2021/06/08 09:24:24;;;;;;;10.30;4.28;;;;;;;31.34;31.68;100492.91;1541955;90;25945;-58
2021/06/08 09:27:01;;;;;;;4.53;3.83;;;;;;;31.12;31.63;100492.02;1551985;91;25826;-57
2021/06/08 09:29:38;;;;;;;7.30;3.80;;;;;;;30.87;31.73;100490.14;1542368;91;25871;-58
2021/06/08 09:32:23;;;;;;;7.47;4.10;;;;;;;30.64;32.19;100487.63;1554391;91;27961;-58
2021/06/08 09:34:59;;;;;;;10.25;4.12;;;;;;;30.46;32.55;100483.35;1552948;90;26083;-58
2021/06/08 09:37:39;;;;;;;7.55;4.33;;;;;;;30.30;32.76;100481.36;1565685;90;25934;-58
2021/06/08 09:40:22;;;;;;;4.75;4.00;;;;;;;30.12;32.90;100480.46;1560135;89;25807;-58
2021/06/08 09:43:10;;;;;;;5.37;3.90;;;;;;;30.00;33.11;100488.14;1542221;90;25916;-58
2021/06/08 09:45:44;;;;;;;;;;;;;;;29.83;33.17;100479.05;1548590;90;27352;-58
2021/06/08 09:48:14;;;;;;;6.42;3.25;;;;;;;29.65;33.13;100482.23;1552722;90;25853;-58
2021/06/08 09:50:49;;;;;;;4.97;4.35;;;;;;;29.48;33.38;100469.53;1562908;90;26418;-59
2021/06/08 09:53:32;;;;;;;6.05;3.77;;;;;;;29.44;33.73;100480.77;1568058;89;25917;-58
2021/06/08 09:56:06;;;;;;;7.62;4.28;;;;;;;29.37;33.99;100470.58;1579429;89;26013;-56
2021/06/08 09:58:35;;;;;;;11.00;4.37;;;;;;;29.44;35.25;100477.98;1575138;89;27351;-57
2021/06/08 10:01:13;;;;;;;8.53;3.72;;;;;;;29.94;35.30;100468.38;1582139;89;27358;-56
2021/06/08 10:03:48;;;;;;;6.22;4.55;;;;;;;30.68;35.33;100479.92;1556538;89;26540;-58
2021/06/08 10:06:27;;;;;;;5.75;3.50;;;;;;;31.44;34.99;100474.23;1541299;91;26399;-58
2021/06/08 10:09:02;;;;;;;6.28;3.98;;;;;;;32.17;33.96;100472.03;1538957;91;26723;-62
2021/06/08 10:11:35;;;;;;;7.65;4.30;;;;;;;32.79;32.92;100473.38;1496748;94;27253;-59
2021/06/08 10:14:18;;;;;;;5.58;4.00;;;;;;;33.27;32.11;100466.91;1487684;93;25815;-59
2021/06/08 10:16:59;;;;;;;6.40;3.70;;;;;;;33.30;30.74;100472.36;1493756;94;26355;-56
2021/06/08 10:19:27;;;;;;;8.00;4.03;;;;;;;33.04;30.53;100470.38;1495639;94;26402;-59
2021/06/08 10:21:54;;;;;;;6.65;3.58;;;;;;;32.89;30.32;100464.55;1475940;96;25858;-57
2021/06/08 10:24:23;;;;;;;4.45;3.65;;;;;;;32.81;30.29;100463.89;1476258;95;27470;-59
2021/06/08 10:26:53;;;;;;;5.80;3.87;;;;;;;32.66;30.37;100460.85;1488228;94;26468;-58
2021/06/08 10:29:23;;;;;;;9.28;3.80;;;;;;;32.72;30.68;100456.23;1502102;94;25917;-59
2021/06/08 10:31:51;;;;;;;9.53;3.92;;;;;;;33.07;31.06;100464.49;1472432;95;27133;-56
2021/06/08 10:34:18;;;;;;;8.78;4.20;;;;;;;33.65;30.85;100482.59;1477222;96;25826;-56
2021/06/08 10:36:45;;;;;;;8.25;3.80;;;;;;;33.98;30.85;100458.94;1471668;96;29557;-56
2021/06/08 10:39:16;;;;;;;6.80;4.00;;;;;;;34.39;30.18;100466.56;1474439;96;26633;-56
2021/06/08 10:41:45;;;;;;;9.50;3.62;;;;;;;34.59;29.90;100461.85;1500150;94;26139;-57
2021/06/08 10:44:25;;;;;;;;;;;;;;;34.72;29.07;100451.88;1505356;94;26175;-57
2021/06/08 10:46:59;;;;;;;10.48;3.75;;;;;;;34.77;28.16;100462.47;1494897;94;25829;-58
2021/06/08 10:49:42;;;;;;;6.65;3.75;;;;;;;34.39;27.90;100450.36;1535724;90;27426;-58
2021/06/08 10:52:15;;;;;;;7.65;4.17;;;;;;;33.96;27.99;100455.06;1556777;90;25937;-58
2021/06/08 10:54:50;;;;;;;10.43;4.65;;;;;;;33.50;28.01;100457.94;1554041;89;26631;-57
2021/06/08 10:57:18;;;;;;;8.73;3.90;;;;;;;33.04;28.31;100453.58;1557763;89;26619;-57
2021/06/08 10:59:51;;;;;;;9.73;4.70;;;;;;;33.00;29.48;100452.15;1546088;90;26403;-58
2021/06/08 11:02:44;;;;;;;7.17;4.20;;;;;;;33.16;29.23;100456.77;1555419;89;27987;-57
2021/06/08 11:05:19;;;;;;;6.03;3.98;;;;;;;32.93;29.13;100457.41;1518159;91;25814;-60
2021/06/08 11:07:51;;;;;;;7.42;4.60;;;;;;;32.60;29.42;100453.65;1553893;90;25918;-62
2021/06/08 11:10:32;;;;;;;8.03;4.53;;;;;;;32.23;29.48;100454.80;1558649;90;25834;-62
2021/06/08 11:13:17;;;;;;;7.35;6.62;;;;;;;31.85;29.60;100454.32;1561776;89;25920;-61
2021/06/08 11:15:50;;;;;;;6.08;4.70;;;;;;;31.47;29.96;100453.16;1540978;90;28834;-61
2021/06/08 11:18:22;;;;;;;7.67;4.97;;;;;;;31.11;30.46;100459.12;1534486;91;25886;-61
2021/06/08 11:21:09;;;;;;;8.08;4.40;;;;;;;30.81;30.83;100452.81;1515939;92;25879;-61
2021/06/08 11:23:44;;;;;;;9.15;4.97;;;;;;;30.58;31.14;100450.32;1526971;92;25929;-61
2021/06/08 11:26:19;;;;;;;10.63;5.60;;;;;;;30.35;31.50;100453.53;1528925;92;26108;-62
2021/06/08 11:28:52;;;;;;;4.40;4.00;;;;;;;30.20;32.04;100455.16;1479971;94;27468;-61
2021/06/08 11:31:27;;;;;;;11.97;4.10;;;;;;;30.27;32.80;100439.61;1501553;92;26015;-60
2021/06/08 11:34:04;;;;;;;9.03;3.70;;;;;;;30.76;32.92;100435.23;1510752;93;26587;-61
2021/06/08 11:36:34;;;;;;;8.58;4.50;;;;;;;31.52;32.33;100429.48;1553538;90;26357;-61
2021/06/08 11:39:24;;;;;;;9.83;3.90;;;;;;;32.20;31.35;100422.94;1541885;90;25904;-62
2021/06/08 11:42:06;;;;;;;7.17;4.35;;;;;;;32.82;31.36;100423.46;1540189;91;27363;-61
2021/06/08 11:44:33;;;;;;;7.75;4.05;;;;;;;33.50;30.64;100424.30;1551940;91;26126;-61
2021/06/08 11:47:05;;;;;;;7.72;4.53;;;;;;;33.92;30.21;100421.55;1531725;90;26144;-61
2021/06/08 11:49:32;;;;;;;7.03;6.12;;;;;;;34.31;29.54;100430.27;1516111;92;26258;-60
2021/06/08 11:52:09;;;;;;;8.18;4.10;;;;;;;34.37;28.68;100426.20;1517484;92;26716;-60
2021/06/08 11:54:40;;;;;;;4.87;3.50;;;;;;;34.11;28.15;100423.72;1522919;92;27331;-60
2021/06/08 11:57:14;;;;;;;7.92;4.20;;;;;;;33.76;27.86;100426.06;1517926;92;25906;-60
2021/06/08 11:59:56;;;;;;;9.08;3.75;;;;;;;33.40;27.86;100431.77;1526524;92;25944;-61
2021/06/08 12:02:49;;;;;;;7.80;4.12;;;;;;;33.05;27.96;100429.93;1522597;92;25736;-61
2021/06/08 12:05:22;;;;;;;7.25;3.87;;;;;;;32.69;28.26;100423.55;1529398;92;25873;-61
2021/06/08 12:08:08;;;;;;;6.25;3.67;;;;;;;32.54;29.04;100413.51;1488705;94;27353;-61
2021/06/08 12:10:42;;;;;;;11.68;4.75;;;;;;;32.84;29.19;100411.94;1520582;92;25821;-61
2021/06/08 12:13:10;;;;;;;5.10;3.77;;;;;;;33.16;28.44;100411.30;1532362;92;26033;-61
2021/06/08 12:15:43;;;;;;;4.55;3.75;;;;;;;33.17;28.08;100414.88;1519068;92;26177;-61
2021/06/08 12:18:20;;;;;;;6.05;3.87;;;;;;;33.23;28.21;100404.00;1491577;94;25943;-61
2021/06/08 12:20:48;;;;;;;4.37;3.30;;;;;;;33.49;28.07;100407.33;1510753;92;29966;-61
2021/06/08 12:23:36;;;;;;;12.53;4.27;;;;;;;33.38;27.57;100404.83;1522564;90;26002;-61
2021/06/08 12:26:20;;;;;;;15.45;6.05;;;;;;;33.03;27.45;100400.81;1538614;91;25983;-61
2021/06/08 12:29:07;;;;;;;10.78;4.37;;;;;;;32.65;27.71;100404.09;1559462;90;26474;-62
2021/06/08 12:31:36;;;;;;;6.60;3.75;;;;;;;32.31;27.68;100409.94;1549737;90;25889;-60
2021/06/08 12:34:14;;;;;;;10.80;3.77;;;;;;;31.94;27.84;100402.68;1558442;91;28165;-62
2021/06/08 12:36:44;;;;;;;10.20;5.40;;;;;;;31.64;28.01;100405.53;1540600;91;25815;-62
2021/06/08 12:39:14;;;;;;;9.13;3.60;;;;;;;31.34;28.16;100406.91;1527377;92;25672;-62
2021/06/08 12:41:43;;;;;;;11.43;3.65;;;;;;;31.05;28.29;100407.84;1528074;92;25988;-62
2021/06/08 12:44:09;;;;;;;11.40;3.87;;;;;;;30.73;28.52;100410.39;1522739;91;25709;-61
2021/06/08 12:46:39;;;;;;;10.05;3.95;;;;;;;30.56;29.19;100409.52;1539831;91;27345;-61
2021/06/08 12:49:15;;;;;;;9.10;3.65;;;;;;;30.57;29.56;100409.70;1551500;90;26616;-69
2021/06/08 12:51:51;;;;;;;8.88;4.90;;;;;;;30.54;29.87;100407.17;1526732;93;26055;-61
2021/06/08 12:54:40;;;;;;;9.98;4.30;;;;;;;30.49;30.30;100410.52;1546667;91;25910;-63
2021/06/08 12:57:27;;;;;;;7.87;4.17;;;;;;;30.41;30.39;100397.41;1544970;91;26042;-61
2021/06/08 13:00:15;;;;;;;8.18;4.25;;;;;;;30.29;30.82;100399.50;1493061;93;30852;-61
2021/06/08 13:02:42;;;;;;;7.37;4.87;;;;;;;30.16;30.60;100398.09;1471907;94;26048;-62
2021/06/08 13:05:11;;;;;;;11.10;4.25;;;;;;;30.18;31.39;100392.22;1473733;95;26064;-62
2021/06/08 13:07:41;;;;;;;8.60;4.05;;;;;;;30.53;31.53;100395.86;1463115;95;25880;-61
2021/06/08 13:10:33;;;;;;;6.90;4.25;;;;;;;30.94;30.93;100383.66;1464396;95;25947;-62
2021/06/08 13:13:07;;;;;;;4.33;3.33;;;;;;;31.26;30.59;100380.61;1448015;96;27342;-62
2021/06/08 13:15:44;;;;;;;5.45;3.42;;;;;;;31.84;30.38;100378.05;1493007;93;25962;-61
2021/06/08 13:18:17;;;;;;;6.45;3.83;;;;;;;32.33;30.29;100371.70;1494063;93;25885;-61
2021/06/08 13:20:54;;;;;;;7.08;4.33;;;;;;;32.69;29.87;100367.55;1491983;93;26315;-61
2021/06/08 13:23:27;;;;;;;7.20;4.22;;;;;;;32.99;29.28;100367.34;1468778;95;25972;-61
2021/06/08 13:26:08;;;;;;;9.00;5.17;;;;;;;33.25;28.66;100373.48;1495648;93;26941;-61
2021/06/08 13:28:39;;;;;;;5.45;4.25;;;;;;;33.52;28.07;100369.80;1470485;95;26004;-61
2021/06/08 13:31:10;;;;;;;7.22;3.90;;;;;;;33.84;27.76;100383.21;1473953;95;25937;-61
2021/06/08 13:33:41;;;;;;;5.35;3.90;;;;;;;34.02;26.56;100353.56;1512051;91;26374;-61
2021/06/08 13:36:11;;;;;;;8.05;3.50;;;;;;;34.02;26.56;100353.56;1556270;91;25804;-61
2021/06/08 13:38:38;;;;;;;3.50;3.20;;;;;;;34.06;26.92;100357.00;1552792;91;27424;-61
2021/06/08 13:41:05;;;;;;;4.03;3.55;;;;;;;34.17;26.28;100362.12;1555993;90;25978;-61
2021/06/08 13:43:44;;;;;;;4.45;3.40;;;;;;;34.26;26.57;100359.94;1555173;91;25564;-61
2021/06/08 13:46:18;;;;;;;4.53;3.55;;;;;;;34.35;25.97;100359.92;1546741;91;25765;-61
2021/06/08 13:48:58;;;;;;;7.25;3.00;;;;;;;34.36;24.95;100360.06;1556772;91;25857;-61
2021/06/08 13:51:26;;;;;;;5.37;3.75;;;;;;;34.30;24.64;100347.30;1540438;91;27740;-61
2021/06/08 13:54:21;;;;;;;3.37;3.05;;;;;;;34.28;25.00;100347.00;1545473;90;25893;-61
2021/06/08 13:57:07;;;;;;;5.20;3.00;;;;;;;34.33;24.98;100349.17;1533981;91;25788;-61
2021/06/08 14:02:51;;;;;;;5.08;3.10;;;;;;;34.35;24.44;100352.91;1555668;91;25863;-61
2021/06/08 14:05:34;;;;;;;5.25;3.00;;;;;;;34.34;24.75;100347.90;1556134;91;27341;-62
2021/06/08 14:08:14;;;;;;;4.62;3.33;;;;;;;34.35;24.39;100344.48;1550691;91;25862;-62
2021/06/08 14:10:55;;;;;;;2.85;2.65;;;;;;;34.39;23.89;100336.66;1560304;90;26495;-63
2021/06/08 14:13:42;;;;;;;5.10;2.72;;;;;;;34.49;23.26;100348.64;1552432;91;26052;-62
2021/06/08 14:16:17;;;;;;;6.08;3.40;;;;;;;34.29;23.38;100335.91;1549387;90;25979;-62
2021/06/08 14:18:37;;;;;;;4.33;2.62;;;;;;;34.21;23.49;100332.67;1541065;91;28023;-62
2021/06/08 14:21:05;;;;;;;6.22;3.65;;;;;;;34.13;23.72;100330.65;1553091;91;25750;-64
2021/06/08 14:23:32;;;;;;;7.47;2.90;;;;;;;34.00;23.36;100328.02;1515836;91;26546;-63
2021/06/08 14:25:59;;;;;;;5.53;3.08;;;;;;;33.86;23.18;100321.80;1551536;91;27821;-62
2021/06/08 14:28:26;;;;;;;6.90;2.70;;;;;;;33.94;23.65;100341.91;1571769;90;25836;-62
2021/06/08 14:30:53;;;;;;;5.60;3.20;;;;;;;33.76;24.10;100316.69;1568442;89;27322;-62
2021/06/08 14:33:21;;;;;;;3.10;2.90;;;;;;;33.72;23.66;100316.85;1575347;89;25846;-62
2021/06/08 14:35:48;;;;;;;4.53;2.70;;;;;;;33.84;23.23;100334.75;1497938;92;32851;-60
2021/06/08 14:38:14;;;;;;;4.37;3.25;;;;;;;33.67;23.38;100316.84;1477862;94;25750;-61
2021/06/08 14:40:40;;;;;;;2.83;2.40;;;;;;;33.60;23.32;100307.33;1500387;94;25945;-62
2021/06/08 14:43:07;;;;;;;7.35;3.10;;;;;;;33.54;22.70;100307.79;1496055;93;27438;-62
2021/06/08 14:45:33;;;;;;;6.83;3.02;;;;;;;33.48;23.36;100304.08;1543465;91;25908;-62
2021/06/08 14:48:00;;;;;;;3.12;2.80;;;;;;;33.27;23.44;100290.35;1522468;92;25670;-62
2021/06/08 14:50:26;;;;;;;4.90;3.10;;;;;;;33.27;23.44;100290.35;1563073;89;25997;-66
2021/06/08 14:52:53;;;;;;;3.45;3.10;;;;;;;33.21;23.89;100297.20;1556106;90;25875;-66
2021/06/08 14:55:19;;;;;;;6.58;3.50;;;;;;;33.07;24.18;100308.37;1573886;89;27321;-67
2021/06/08 14:57:46;;;;;;;4.10;3.30;;;;;;;32.87;23.95;100298.23;1578192;89;25798;-67
2021/06/08 15:00:13;;;;;;;6.78;3.08;;;;;;;32.61;24.03;100306.07;1533786;91;26219;-65
2021/06/08 15:02:39;;;;;;;7.05;3.42;;;;;;;32.27;24.12;100306.40;1552092;90;25891;-65
2021/06/08 15:05:07;;;;;;;10.32;4.80;;;;;;;31.92;24.35;100315.63;1555481;90;26327;-65
2021/06/08 15:07:34;;;;;;;3.45;3.15;;;;;;;31.60;24.76;100309.82;1557277;89;27341;-65
2021/06/08 15:10:02;;;;;;;5.10;3.30;;;;;;;31.27;24.96;100314.34;1535458;91;25937;-66
2021/06/08 15:12:30;;;;;;;6.95;3.45;;;;;;;30.93;25.34;100319.25;1535226;92;25800;-66
2021/06/08 15:14:58;;;;;;;5.42;3.62;;;;;;;30.64;25.67;100322.34;1523048;92;25755;-66
2021/06/08 15:17:25;;;;;;;6.92;3.52;;;;;;;30.38;25.97;100334.11;1531154;92;26121;-65
2021/06/08 15:19:52;;;;;;;4.83;3.47;;;;;;;30.16;26.38;100318.60;1536289;92;28149;-66
2021/06/08 15:22:19;;;;;;;5.65;3.72;;;;;;;29.96;26.58;100322.34;1526295;92;25928;-66
2021/06/08 15:24:46;;;;;;;7.42;3.90;;;;;;;29.76;26.75;100318.91;1522551;92;25998;-66
2021/06/08 15:27:13;;;;;;;6.40;3.75;;;;;;;29.58;27.04;100317.40;1530112;92;26220;-65
2021/06/08 15:29:41;;;;;;;4.90;3.60;;;;;;;29.39;27.31;100317.71;1533183;91;25924;-66
2021/06/08 15:32:08;;;;;;;7.50;4.05;;;;;;;29.21;27.68;100314.60;1547731;90;27370;-67
2021/06/08 15:34:34;;;;;;;6.33;4.12;;;;;;;29.03;28.09;100313.02;1556121;91;25821;-67
2021/06/08 15:37:00;;;;;;;4.92;3.87;;;;;;;28.90;28.30;100313.55;1557839;91;25942;-67
2021/06/08 15:39:27;;;;;;;9.68;4.08;;;;;;;28.80;28.53;100315.36;1550804;91;25781;-66
2021/06/08 15:41:54;;;;;;;4.30;3.90;;;;;;;28.70;28.73;100309.44;1548164;91;25737;-66
2021/06/08 15:44:20;;;;;;;6.75;3.77;;;;;;;28.60;29.12;100314.03;1553429;91;27318;-67
2021/06/08 15:46:47;;;;;;;7.12;3.70;;;;;;;28.48;29.03;100312.68;1546001;91;26175;-67
2021/06/08 15:49:13;;;;;;;5.37;3.42;;;;;;;28.41;29.17;100317.02;1548692;91;25860;-67
2021/06/08 15:51:39;;;;;;;9.50;3.50;;;;;;;28.30;29.30;100310.31;1557048;91;25920;-67
2021/06/08 15:54:06;;;;;;;4.47;4.08;;;;;;;28.22;29.42;100310.28;1554217;91;25898;-61
2021/06/08 15:56:37;;;;;;;4.53;3.80;;;;;;;28.16;29.80;100310.60;1541955;90;27408;-61
2021/06/08 15:59:05;;;;;;;6.95;4.08;;;;;;;28.07;29.84;100307.02;1557114;91;25964;-61
2021/06/08 16:01:33;;;;;;;5.55;4.60;;;;;;;28.03;30.15;100307.70;1547791;91;25912;-62
2021/06/08 16:04:01;;;;;;;5.95;5.35;;;;;;;27.96;30.30;100307.86;1570031;89;27873;-63
2021/06/08 16:06:27;;;;;;;6.70;4.40;;;;;;;27.90;30.48;100313.70;1538940;92;25817;-63
2021/06/08 16:08:53;;;;;;;7.28;4.10;;;;;;;27.83;30.39;100309.69;1516484;93;28388;-62
2021/06/08 16:11:22;;;;;;;6.08;4.15;;;;;;;27.78;30.58;100308.17;1560046;89;25924;-62
2021/06/08 16:13:52;;;;;;;4.67;3.85;;;;;;;27.72;30.67;100313.45;1498962;94;27112;-62
2021/06/08 16:16:18;;;;;;;9.03;4.45;;;;;;;27.70;30.78;100303.38;1479800;95;26132;-60
2021/06/08 16:18:45;;;;;;;6.70;4.25;;;;;;;27.71;31.14;100304.16;1487800;94;25937;-62
2021/06/08 16:21:13;;;;;;;6.55;3.85;;;;;;;27.75;31.39;100309.02;1547716;91;26076;-62
2021/06/08 16:23:39;;;;;;;7.25;4.20;;;;;;;27.78;31.36;100311.57;1537473;91;26651;-60
2021/06/08 16:26:06;;;;;;;6.78;3.72;;;;;;;27.80;31.33;100312.70;1555198;91;25871;-59
2021/06/08 16:28:33;;;;;;;10.18;4.58;;;;;;;27.85;31.43;100316.36;1551695;91;26040;-60
2021/06/08 16:31:00;;;;;;;5.25;4.33;;;;;;;27.86;31.38;100315.16;1553827;91;26551;-59
2021/06/08 16:33:27;;;;;;;9.15;4.03;;;;;;;27.86;31.47;100320.72;1552478;90;27058;-59
2021/06/08 16:35:54;;;;;;;7.67;4.17;;;;;;;27.86;31.49;100315.78;1551742;91;25963;-58
2021/06/08 16:38:21;;;;;;;9.30;4.28;;;;;;;27.88;31.38;100314.73;1573880;89;26011;-59
2021/06/08 16:40:48;;;;;;;6.53;4.20;;;;;;;27.92;31.53;100320.44;1586719;89;25772;-60
2021/06/08 16:43:14;;;;;;;6.12;4.50;;;;;;;27.94;31.36;100312.45;1580121;89;25962;-59
2021/06/08 16:45:41;;;;;;;7.28;4.37;;;;;;;27.94;31.17;100315.23;1582774;89;27602;-58
2021/06/08 16:48:08;;;;;;;7.42;4.10;;;;;;;27.94;31.15;100323.57;1573277;89;25818;-59
2021/06/08 16:50:42;;;;;;;5.65;3.77;;;;;;;27.93;31.20;100324.77;1551090;90;25992;-60
2021/06/08 16:53:19;;;;;;;4.62;3.87;;;;;;;27.90;31.18;100322.81;1562486;89;25899;-60
2021/06/08 16:55:46;;;;;;;4.65;3.83;;;;;;;27.85;31.19;100323.31;1541886;89;26238;-61
2021/06/08 16:58:15;;;;;;;7.83;3.98;;;;;;;27.81;31.11;100321.83;1549128;89;27706;-62
2021/06/08 17:00:43;;;;;;;7.05;3.90;;;;;;;27.75;31.05;100321.53;1553306;90;26056;-61
2021/06/08 17:03:10;;;;;;;7.42;4.12;;;;;;;27.69;31.07;100324.64;1561781;89;26684;-60
2021/06/08 17:05:36;;;;;;;6.03;4.85;;;;;;;27.63;31.09;100328.49;1582923;89;25924;-59
2021/06/08 17:08:05;;;;;;;7.60;4.15;;;;;;;27.57;31.13;100326.83;1554185;90;25832;-60
2021/06/08 17:10:32;;;;;;;5.50;4.30;;;;;;;27.51;31.35;100322.95;1554688;89;27382;-61
2021/06/08 17:13:01;;;;;;;6.60;4.30;;;;;;;27.46;31.54;100324.06;1556872;90;25930;-61
2021/06/08 17:15:31;;;;;;;6.87;4.55;;;;;;;27.39;31.63;100321.58;1564219;89;25779;-61
2021/06/08 17:17:57;;;;;;;8.23;4.67;;;;;;;27.34;31.72;100320.67;1547710;90;25928;-61